Ballycastle, United Kingdom
Current Conditions -  °F | °C
As of 7:20 PM on Tuesday 21 Oct 2014 (Local Time) from EGEC Reporting Station
Few Clouds Few Clouds  
Wind Chill: 50°   Ceiling: Unl
Heat Index: 50°   Visibility: 6mi
Dew Point: 39°   Wind: 26mph
Humidity: 66%   Direction: 310°NW
Pressure: 29.94"   Gusts: NA
Location:  55.2°N, 6.24°W
Report Text: EGEC 211820Z 31023KT 9999 FEW024 10/04 Q1014
Loading
Personal Weather Stations






























Interactive Weather Map
Tropical Storm Tracking
New forecast layout! Learn more

10-Day Weather Forecast

Advertisements
Track Severe Weather on mobile